Arezzo, Italy

9:32 AM CET on October 26, 2014 (GMT +0100)
Arezzo ITIS | Change Station
CLOSE
Current Station
Personal Weather Station
Location: Arezzo, TOSCANA
Elevation: 833 ft
Nearby Weather Stations

Elev 833 ft 43.46 °N, 11.87 °E | Updated 7 minutes ago

Clear
Clear
54.4 °F
Feels Like 54.4 °F
N
1.0
Wind Variable Wind from NE
Gusts 5.0 mph

Today
High -- | Low -- °F
--% Chance of Precip.
Yesterday
High -- | Low -- °F
Precip. -- in
6:39 AM 5:12 PM
Waxing Crescent, 6% visible
Pressure 30.21 in
Visibility -9999.0 miles
Clouds
Dew Point 46 °F
Humidity 73%
Rainfall 0.00 in
Snow Depth Not available.
UV Not available.
Pollen Not available.
Air Quality Not available.
Flu Activity Not available.
METAR LIRQ 260820Z 01009KT 340V080 CAVOK 16/07 Q1023

More Conditions Fewer Conditions

Pressure 30.21 in
Visibility -9999.0 miles
Clouds
Dew Point 46 °F
Humidity 73%
Rainfall 0.00 in
Snow Depth Not available.
UV Not available.
Pollen Not available.
Air Quality Not available.
Flu Activity Not available.
METAR LIRQ 260820Z 01009KT 340V080 CAVOK 16/07 Q1023

More Conditions Fewer Conditions

10-Day Weather Forecast

Almanac

Astronomy

Oct. 26, 2014 Rise Set
Actual Time 6:39 AM CET 5:12 PM CET
Civil Twilight 6:10 AM CET 5:41 PM CET
Nautical Twilight 5:37 AM CET 6:15 PM CET
Astronomical Twilight 5:03 AM CET 6:48 PM CET
Moon 9:04 AM CET 7:06 PM CET
Length of Visible Light 11h 31m
Length of Day
10h 32m
Tomorrow will be 2m 44s shorter.
Waxing Crescent, 6% of the Moon is Illuminated
Today
Waxing Crescent
Oct 30
First Quarter
Nov 6
Full
Nov 14
Last Quarter
Nov 22
New

Yesterday's Extremes

Country Highs Country Lows

Community

WunderPhotos

Upload Photos

1,765,127 photos uploaded!

Nearby

Snow Depth

Not available.

Earthquake Activity

City Distance Mag. Time & Date
No recent earthquake activity has been reported nearby.
Minimum magnitude displayed is 2.5.

Coastal Water Temperatures

Place Temperature
No Stations Reporting

Nearby Weather Stations